| time (UTC) | temp C | wind direction | speed KPH | gust KPH | rain 1hr cm | rain 24hr cm | rain mn cm | humidity % | barometer mb |
| 20260507073000 | 10 | 319 | 4.8 | 11.3 | 0.00 | 0.00 | 0.00 | 87 | 1014.2 |
| 20260507072004 | 10 | 319 | 4.8 | 11.3 | 0.00 | 0.00 | 0.00 | 87 | 1014.2 |
| 20260507071004 | 9 | 339 | 3.2 | 11.3 | 0.00 | 0.00 | 0.00 | 87 | 1014.1 |
| 20260507070000 | 9 | 339 | 3.2 | 9.7 | 0.00 | 0.00 | 0.00 | 87 | 1014.1 |
| 20260507065000 | 9 | 339 | 3.2 | 9.7 | 0.00 | 0.00 | 0.00 | 87 | 1014.1 |
| 20260507064004 | 9 | 346 | 4.8 | 17.7 | 0.00 | 0.00 | 0.00 | 87 | 1013.9 |
| 20260507063000 | 9 | 327 | 3.2 | 6.4 | 0.00 | 0.00 | 0.00 | 88 | 1013.9 |
| 20260507062004 | 9 | 327 | 3.2 | 6.4 | 0.00 | 0.00 | 0.00 | 88 | 1013.9 |
| 20260507061005 | 8 | 331 | 3.2 | 9.7 | 0.00 | 0.00 | 0.00 | 88 | 1013.5 |
| 20260507060004 | 8 | 339 | 3.2 | 9.7 | 0.00 | 0.00 | 0.00 | 88 | 1013.3 |
| 20260507055001 | 8 | 339 | 3.2 | 9.7 | 0.00 | 0.00 | 0.00 | 88 | 1013.3 |
| 20260507054000 | 8 | 317 | 3.2 | 6.4 | 0.00 | 0.00 | 0.00 | 89 | 1012.8 |
| 20260507053001 | 8 | 317 | 3.2 | 6.4 | 0.00 | 0.00 | 0.00 | 89 | 1012.8 |
| 20260507052004 | 8 | 317 | 3.2 | 6.4 | 0.00 | 0.00 | 0.00 | 89 | 1012.8 |
| 20260507051000 | 8 | 317 | 3.2 | 6.4 | 0.00 | 0.00 | 0.00 | 89 | 1012.8 |
| 20260507050005 | 8 | 317 | 3.2 | 6.4 | 0.00 | 0.00 | 0.00 | 89 | 1012.8 |
| 20260507045004 | 8 | 334 | 4.8 | 11.3 | 0.00 | 0.00 | 0.00 | 89 | 1012.8 |
| 20260507044004 | 8 | 334 | 4.8 | 11.3 | 0.00 | 0.00 | 0.00 | 89 | 1012.8 |
| 20260507043005 | 8 | 319 | 3.2 | 8.0 | 0.00 | 0.00 | 0.00 | 89 | 1012.7 |
| 20260507042005 | 8 | 326 | 3.2 | 6.4 | 0.00 | 0.00 | 0.00 | 89 | 1012.6 |
| 20260507041001 | 8 | 326 | 3.2 | 6.4 | 0.00 | 0.00 | 0.00 | 89 | 1012.6 |
| 20260507040000 | 8 | 306 | 1.6 | 4.8 | 0.00 | 0.00 | 0.00 | 90 | 1012.5 |
| 20260507035004 | 8 | 343 | 1.6 | 6.4 | 0.00 | 0.00 | 0.00 | 89 | 1012.3 |
| 20260507034004 | 8 | 343 | 1.6 | 6.4 | 0.00 | 0.00 | 0.00 | 89 | 1012.3 |
| 20260507033000 | 8 | 335 | 3.2 | 4.8 | 0.00 | 0.00 | 0.00 | 89 | 1012.3 |
| 20260507032004 | 8 | 344 | 1.6 | 3.2 | 0.00 | 0.00 | 0.00 | 89 | 1012.2 |
| 20260507031000 | 8 | 123 | 1.6 | 4.8 | 0.00 | 0.00 | 0.00 | 89 | 1012.2 |
| 20260507030000 | 8 | 303 | 1.6 | 4.8 | 0.00 | 0.00 | 0.00 | 89 | 1012.1 |
| 20260507025004 | 8 | 304 | 3.2 | 9.7 | 0.00 | 0.00 | 0.00 | 89 | 1012.1 |
| 20260507024000 | 9 | 0 | 3.2 | 6.4 | 0.00 | 0.00 | 0.00 | 89 | 1012.0 |
| 20260507023004 | 8 | 180 | 3.2 | 6.4 | 0.00 | 0.00 | 0.00 | 89 | 1012.0 |
| 20260507022004 | 8 | 347 | 3.2 | 11.3 | 0.00 | 0.00 | 0.00 | 89 | 1011.9 |
| 20260507021004 | 9 | 328 | 1.6 | 6.4 | 0.00 | 0.00 | 0.00 | 89 | 1011.9 |
| 20260507020004 | 9 | 324 | 1.6 | 6.4 | 0.00 | 0.00 | 0.00 | 89 | 1011.8 |
| 20260507015004 | 9 | 339 | 3.2 | 8.0 | 0.00 | 0.00 | 0.00 | 89 | 1011.8 |
| 20260507014000 | 9 | 8 | 3.2 | 9.7 | 0.00 | 0.00 | 0.00 | 89 | 1011.7 |
| 20260507013000 | 9 | 49 | 1.6 | 4.8 | 0.00 | 0.00 | 0.00 | 89 | 1011.7 |
| 20260507012004 | 9 | 336 | 1.6 | 3.2 | 0.00 | 0.00 | 0.00 | 89 | 1011.6 |
| 20260507011004 | 9 | 336 | 3.2 | 6.4 | 0.00 | 0.00 | 0.00 | 89 | 1011.5 |
| 20260507010004 | 9 | 331 | 1.6 | 6.4 | 0.00 | 0.00 | 0.00 | 89 | 1011.4 |
| 20260507005000 | 9 | 319 | 1.6 | 6.4 | 0.00 | 0.00 | 0.00 | 89 | 1011.4 |
| 20260507004004 | 9 | 322 | 4.8 | 9.7 | 0.00 | 0.00 | 0.00 | 89 | 1011.3 |
| 20260507003004 | 9 | 334 | 3.2 | 8.0 | 0.00 | 0.00 | 0.00 | 90 | 1011.3 |
| 20260507002000 | 9 | 318 | 4.8 | 11.3 | 0.00 | 0.00 | 0.00 | 89 | 1011.3 |
| 20260507001000 | 9 | 312 | 4.8 | 6.4 | 0.00 | 0.00 | 0.00 | 89 | 1011.3 |
| 20260507000005 | 9 | 307 | 3.2 | 9.7 | 0.00 | 0.00 | 0.00 | 89 | 1011.3 |
| 20260506235001 | 9 | 13 | 1.6 | 4.8 | 0.00 | 0.00 | 0.00 | 90 | 1011.2 |
| 20260506234000 | 9 | 340 | 3.2 | 6.4 | 0.00 | 0.00 | 0.00 | 90 | 1011.2 |
| 20260506233004 | 9 | 329 | 3.2 | 6.4 | 0.00 | 0.00 | 0.00 | 89 | 1011.2 |
| 20260506232004 | 9 | 307 | 3.2 | 6.4 | 0.00 | 0.00 | 0.00 | 89 | 1011.2 |
| 20260506231004 | 9 | 333 | 3.2 | 6.4 | 0.00 | 0.00 | 0.00 | 89 | 1011.1 |
| 20260506230001 | 9 | 320 | 3.2 | 6.4 | 0.00 | 0.00 | 0.00 | 89 | 1011.1 |
| 20260506225000 | 10 | 325 | 3.2 | 6.4 | 0.00 | 0.00 | 0.00 | 89 | 1011.1 |
| 20260506224000 | 10 | 24 | 1.6 | 6.4 | 0.00 | 0.00 | 0.00 | 90 | 1011.0 |
| 20260506223000 | 10 | 336 | 1.6 | 3.2 | 0.00 | 0.00 | 0.00 | 90 | 1010.9 |
| 20260506222004 | 10 | 30 | 3.2 | 6.4 | 0.00 | 0.00 | 0.00 | 90 | 1010.7 |
| 20260506221004 | 9 | 8 | 1.6 | 6.4 | 0.00 | 0.00 | 0.00 | 90 | 1010.7 |
| 20260506220005 | 9 | 183 | 1.6 | 4.8 | 0.00 | 0.00 | 0.15 | 90 | 1010.6 |
| 20260506215005 | 9 | 358 | 1.6 | 3.2 | 0.00 | 0.00 | 0.15 | 90 | 1010.6 |
| 20260506214004 | 9 | 5 | 3.2 | 8.0 | 0.00 | 0.00 | 0.15 | 90 | 1010.6 |
| 20260506213004 | 9 | 331 | 3.2 | 8.0 | 0.00 | 0.00 | 0.15 | 90 | 1010.5 |
| 20260506212004 | 9 | 332 | 3.2 | 9.7 | 0.00 | 0.00 | 0.15 | 90 | 1010.5 |
| 20260506211000 | 9 | 329 | 4.8 | 11.3 | 0.00 | 0.00 | 0.15 | 90 | 1010.4 |
| 20260506210004 | 9 | 315 | 3.2 | 6.4 | 0.00 | 0.00 | 0.15 | 90 | 1010.3 |
| 20260506205000 | 9 | 316 | 3.2 | 8.0 | 0.00 | 0.00 | 0.15 | 90 | 1010.3 |
| 20260506204005 | 9 | 317 | 3.2 | 11.3 | 0.00 | 0.00 | 0.15 | 89 | 1010.1 |
| 20260506203000 | 9 | 317 | 3.2 | 11.3 | 0.00 | 0.00 | 0.15 | 89 | 1010.1 |
| 20260506202004 | 9 | 317 | 3.2 | 11.3 | 0.00 | 0.00 | 0.15 | 89 | 1010.1 |
| 20260506201004 | 9 | 317 | 3.2 | 11.3 | 0.00 | 0.00 | 0.15 | 89 | 1010.1 |
| 20260506200000 | 9 | 317 | 3.2 | 11.3 | 0.00 | 0.00 | 0.15 | 89 | 1010.1 |
| 20260506195004 | 9 | 320 | 6.4 | 14.5 | 0.00 | 0.00 | 0.15 | 88 | 1009.9 |
| 20260506194004 | 9 | 334 | 4.8 | 14.5 | 0.00 | 0.00 | 0.15 | 88 | 1009.9 |
| 20260506193000 | 10 | 328 | 3.2 | 8.0 | 0.00 | 0.00 | 0.15 | 88 | 1009.6 |
| 20260506192004 | 9 | 306 | 3.2 | 9.7 | 0.00 | 0.00 | 0.15 | 88 | 1009.5 |
| 20260506191004 | 9 | 321 | 3.2 | 9.7 | 0.00 | 0.00 | 0.15 | 88 | 1009.4 |
| 20260506190000 | 10 | 316 | 4.8 | 11.3 | 0.00 | 0.00 | 0.15 | 88 | 1009.2 |
| 20260506185000 | 10 | 322 | 6.4 | 17.7 | 0.00 | 0.00 | 0.15 | 88 | 1009.1 |
| 20260506184001 | 10 | 326 | 6.4 | 14.5 | 0.00 | 0.00 | 0.15 | 88 | 1008.9 |
| 20260506183006 | 10 | 315 | 6.4 | 14.5 | 0.00 | 0.00 | 0.15 | 87 | 1008.9 |
| 20260506182004 | 10 | 320 | 6.4 | 22.5 | 0.00 | 0.00 | 0.15 | 87 | 1008.8 |
| 20260506181001 | 10 | 325 | 6.4 | 22.5 | 0.00 | 0.00 | 0.15 | 87 | 1008.8 |
| 20260506180000 | 10 | 329 | 4.8 | 14.5 | 0.00 | 0.00 | 0.15 | 87 | 1008.8 |
| 20260506175000 | 11 | 344 | 3.2 | 3.2 | 0.00 | 0.00 | 0.15 | 83 | 1008.6 |
| 20260506174004 | 11 | 344 | 3.2 | 3.2 | 0.00 | 0.00 | 0.15 | 83 | 1008.6 |
| 20260506173000 | 11 | 344 | 3.2 | 3.2 | 0.00 | 0.00 | 0.15 | 83 | 1008.6 |
| 20260506172005 | 11 | 344 | 3.2 | 3.2 | 0.00 | 0.00 | 0.15 | 83 | 1008.6 |
| 20260506171004 | 11 | 344 | 3.2 | 3.2 | 0.00 | 0.00 | 0.15 | 83 | 1008.6 |
| 20260506170004 | 11 | 344 | 3.2 | 3.2 | 0.00 | 0.00 | 0.15 | 83 | 1008.6 |
| 20260506165004 | 11 | 299 | 3.2 | 8.0 | 0.00 | 0.00 | 0.15 | 83 | 1008.4 |
| 20260506164004 | 11 | 329 | 1.6 | 3.2 | 0.00 | 0.00 | 0.15 | 84 | 1008.3 |
| 20260506163000 | 11 | 329 | 1.6 | 3.2 | 0.00 | 0.00 | 0.15 | 84 | 1008.3 |
| 20260506162004 | 12 | 320 | 3.2 | 6.4 | 0.00 | 0.00 | 0.15 | 83 | 1008.1 |
| 20260506161000 | 12 | 341 | 3.2 | 6.4 | 0.00 | 0.00 | 0.15 | 84 | 1007.9 |
| 20260506160004 | 12 | 341 | 3.2 | 6.4 | 0.00 | 0.00 | 0.15 | 84 | 1007.9 |
| 20260506155004 | 12 | 343 | 3.2 | 12.9 | 0.00 | 0.00 | 0.15 | 84 | 1007.7 |
| 20260506154004 | 12 | 333 | 4.8 | 14.5 | 0.00 | 0.00 | 0.15 | 83 | 1007.6 |
| 20260506153005 | 12 | 333 | 4.8 | 14.5 | 0.00 | 0.00 | 0.15 | 83 | 1007.6 |
| 20260506152004 | 12 | 334 | 4.8 | 14.5 | 0.00 | 0.00 | 0.15 | 82 | 1007.5 |
| 20260506151005 | 12 | 327 | 6.4 | 20.9 | 0.00 | 0.00 | 0.15 | 83 | 1007.3 |
| 20260506150004 | 12 | 327 | 6.4 | 20.9 | 0.00 | 0.00 | 0.15 | 83 | 1007.3 |
| 20260506145000 | 12 | 340 | 6.4 | 12.9 | 0.00 | 0.00 | 0.15 | 83 | 1007.2 |
| 20260506144004 | 12 | 338 | 6.4 | 11.3 | 0.00 | 0.00 | 0.15 | 83 | 1007.3 |
| 20260506143005 | 12 | 338 | 6.4 | 11.3 | 0.00 | 0.00 | 0.15 | 83 | 1007.3 |
| 20260506142000 | 12 | 334 | 6.4 | 14.5 | 0.00 | 0.00 | 0.15 | 83 | 1007.3 |
| 20260506141001 | 12 | 333 | 4.8 | 11.3 | 0.00 | 0.00 | 0.15 | 83 | 1007.1 |
| 20260506140000 | 12 | 333 | 4.8 | 11.3 | 0.00 | 0.00 | 0.15 | 83 | 1007.1 |
| 20260506135004 | 12 | 330 | 6.4 | 19.3 | 0.00 | 0.00 | 0.15 | 83 | 1007.0 |
| 20260506134000 | 13 | 331 | 4.8 | 11.3 | 0.00 | 0.00 | 0.15 | 82 | 1007.1 |
| 20260506133000 | 13 | 331 | 4.8 | 11.3 | 0.00 | 0.00 | 0.15 | 82 | 1007.1 |
| 20260506132000 | 13 | 334 | 4.8 | 17.7 | 0.00 | 0.00 | 0.15 | 81 | 1007.0 |
| 20260506131004 | 13 | 336 | 6.4 | 16.1 | 0.00 | 0.00 | 0.15 | 82 | 1006.8 |
| 20260506130005 | 13 | 336 | 6.4 | 16.1 | 0.00 | 0.00 | 0.15 | 82 | 1006.8 |
| 20260506125004 | 13 | 340 | 6.4 | 17.7 | 0.00 | 0.00 | 0.15 | 82 | 1006.7 |
| 20260506124004 | 13 | 316 | 3.2 | 9.7 | 0.00 | 0.00 | 0.15 | 85 | 1006.8 |
| 20260506123000 | 13 | 316 | 3.2 | 9.7 | 0.00 | 0.00 | 0.15 | 85 | 1006.8 |
| 20260506122000 | 13 | 329 | 3.2 | 9.7 | 0.00 | 0.00 | 0.15 | 85 | 1006.7 |
| 20260506121004 | 13 | 329 | 3.2 | 8.0 | 0.00 | 0.00 | 0.15 | 85 | 1006.7 |
| 20260506120005 | 13 | 329 | 3.2 | 8.0 | 0.00 | 0.00 | 0.15 | 85 | 1006.7 |
| 20260506115000 | 13 | 329 | 4.8 | 11.3 | 0.00 | 0.00 | 0.15 | 85 | 1006.6 |
| 20260506114000 | 13 | 347 | 3.2 | 6.4 | 0.00 | 0.00 | 0.15 | 86 | 1006.7 |
| 20260506113005 | 13 | 334 | 1.6 | 6.4 | 0.00 | 0.00 | 0.15 | 87 | 1006.6 |
| 20260506112000 | 13 | 302 | 3.2 | 9.7 | 0.00 | 0.00 | 0.15 | 86 | 1006.5 |
| 20260506111004 | 13 | 339 | 3.2 | 9.7 | 0.00 | 0.00 | 0.15 | 87 | 1006.5 |
| 20260506110004 | 13 | 335 | 3.2 | 11.3 | 0.00 | 0.00 | 0.15 | 87 | 1006.4 |
| 20260506105004 | 13 | 343 | 4.8 | 11.3 | 0.00 | 0.00 | 0.15 | 87 | 1006.4 |
| 20260506104000 | 13 | 341 | 3.2 | 6.4 | 0.00 | 0.00 | 0.15 | 88 | 1006.4 |
| 20260506103000 | 12 | 350 | 3.2 | 6.4 | 0.00 | 0.00 | 0.15 | 88 | 1006.3 |
| 20260506102000 | 12 | 347 | 3.2 | 9.7 | 0.00 | 0.00 | 0.15 | 88 | 1006.2 |
| 20260506101004 | 12 | 334 | 3.2 | 9.7 | 0.00 | 0.00 | 0.15 | 89 | 1006.2 |
| 20260506100001 | 12 | 348 | 3.2 | 6.4 | 0.00 | 0.00 | 0.15 | 89 | 1006.2 |
| 20260506095004 | 12 | 355 | 3.2 | 9.7 | 0.00 | 0.00 | 0.15 | 89 | 1006.1 |
| 20260506094000 | 12 | 341 | 4.8 | 9.7 | 0.00 | 0.00 | 0.15 | 90 | 1006.0 |
| 20260506093004 | 12 | 341 | 3.2 | 12.9 | 0.00 | 0.00 | 0.15 | 90 | 1005.9 |
| 20260506092004 | 12 | 339 | 4.8 | 9.7 | 0.00 | 0.00 | 0.15 | 90 | 1005.9 |
| 20260506091000 | 12 | 340 | 3.2 | 8.0 | 0.00 | 0.00 | 0.15 | 90 | 1005.9 |
| 20260506090000 | 12 | 340 | 3.2 | 6.4 | 0.00 | 0.00 | 0.15 | 90 | 1005.9 |
| 20260506085005 | 12 | 334 | 3.2 | 8.0 | 0.00 | 0.00 | 0.15 | 90 | 1005.8 |
| 20260506084000 | 12 | 337 | 3.2 | 9.7 | 0.00 | 0.00 | 0.15 | 90 | 1005.7 |
| 20260506083005 | 12 | 349 | 4.8 | 6.4 | 0.00 | 0.00 | 0.15 | 90 | 1005.6 |
| 20260506082000 | 12 | 352 | 3.2 | 6.4 | 0.00 | 0.00 | 0.15 | 90 | 1005.7 |
| 20260506081000 | 12 | 1 | 3.2 | 8.0 | 0.00 | 0.00 | 0.15 | 90 | 1005.7 |